createdAt,value
2023-02-17T00:02:26.021Z,0.32
2023-02-17T00:07:31.525Z,0.40
2023-02-17T00:12:35.063Z,0.47
2023-02-17T00:17:37.517Z,0.53
2023-02-17T00:22:39.685Z,0.58
2023-02-17T00:27:41.618Z,0.62
2023-02-17T00:32:44.326Z,0.66
2023-02-17T00:37:46.152Z,0.67
2023-02-17T00:42:48.996Z,0.68
2023-02-17T00:47:50.946Z,0.67
2023-02-17T00:52:52.805Z,0.63
2023-02-17T00:57:54.964Z,0.57
2023-02-17T01:02:57.600Z,0.52
2023-02-17T01:07:59.695Z,0.46
2023-02-17T01:13:02.581Z,0.40
2023-02-17T01:18:04.597Z,0.33
2023-02-17T01:23:07.973Z,0.27
2023-02-17T01:28:21.702Z,0.22
2023-02-17T01:33:23.663Z,0.17
2023-02-17T01:38:25.711Z,0.12
2023-02-17T01:43:27.588Z,0.07
2023-02-17T01:48:31.776Z,0.04
2023-02-17T01:53:39.998Z,0.01
2023-02-17T01:58:47.054Z,-0.02
2023-02-17T02:03:51.061Z,-0.04
2023-02-17T02:08:59.536Z,-0.04
2023-02-17T02:14:07.229Z,-0.00
2023-02-17T02:19:36.265Z,0.06
2023-02-17T02:24:58.715Z,0.13
2023-02-17T02:30:31.524Z,0.19
2023-02-17T02:35:48.361Z,0.28
2023-02-17T02:41:20.691Z,0.36
2023-02-17T02:46:22.893Z,0.43
2023-02-17T02:51:49.722Z,0.51
2023-02-17T02:57:04.530Z,0.58
2023-02-17T03:02:29.622Z,0.62
2023-02-17T03:07:45.266Z,0.64
2023-02-17T03:12:49.009Z,0.65
2023-02-17T03:17:50.988Z,0.66
2023-02-17T03:22:53.192Z,0.71
2023-02-17T03:27:55.347Z,0.73
2023-02-17T03:32:57.515Z,0.78
2023-02-17T03:37:59.604Z,0.84
2023-02-17T03:43:09.130Z,0.93
2023-02-17T03:48:11.074Z,1.02
2023-02-17T03:53:12.937Z,1.09
2023-02-17T03:58:14.955Z,1.16
2023-02-17T04:03:16.798Z,1.24
2023-02-17T04:08:18.717Z,1.31
2023-02-17T04:13:20.899Z,1.35
2023-02-17T04:18:23.778Z,1.38
2023-02-17T04:23:26.369Z,1.43
2023-02-17T04:28:28.813Z,1.48
2023-02-17T04:33:31.124Z,1.50
2023-02-17T04:38:33.655Z,1.55
2023-02-17T04:43:35.705Z,1.59
2023-02-17T04:48:38.263Z,1.63
2023-02-17T04:53:40.237Z,1.67
2023-02-17T04:58:42.634Z,1.71
2023-02-17T05:03:44.828Z,1.76
2023-02-17T05:08:48.330Z,1.80
2023-02-17T05:13:50.576Z,1.83
2023-02-17T05:18:52.823Z,1.85
2023-02-17T05:23:55.006Z,1.88
2023-02-17T05:28:57.506Z,1.91
2023-02-17T05:33:59.528Z,1.95
2023-02-17T05:39:02.016Z,2.02
2023-02-17T05:44:04.060Z,2.07
2023-02-17T05:49:05.988Z,2.13
2023-02-17T05:54:08.165Z,2.19
2023-02-17T05:59:10.249Z,2.24
2023-02-17T06:04:12.201Z,2.29
2023-02-17T06:09:15.109Z,2.34
2023-02-17T06:14:16.984Z,2.40
2023-02-17T06:19:19.229Z,2.47
2023-02-17T06:24:21.061Z,2.58
2023-02-17T06:29:22.868Z,2.69
2023-02-17T06:34:25.105Z,2.82
2023-02-17T06:39:27.113Z,2.96
2023-02-17T06:44:29.264Z,3.10
2023-02-17T06:49:31.103Z,3.24
2023-02-17T06:54:32.988Z,3.37
2023-02-17T06:59:34.939Z,3.49
2023-02-17T07:04:37.009Z,3.64
2023-02-17T07:09:40.166Z,3.81
2023-02-17T07:14:42.109Z,3.99
2023-02-17T07:19:43.972Z,4.17
2023-02-17T07:24:46.049Z,4.34
2023-02-17T07:29:48.012Z,4.47
2023-02-17T07:34:53.253Z,4.57
2023-02-17T07:39:57.167Z,4.68
2023-02-17T07:44:59.148Z,4.77
2023-02-17T07:50:01.243Z,4.84
2023-02-17T07:55:03.941Z,4.87
2023-02-17T08:00:09.258Z,4.90
2023-02-17T08:05:16.077Z,4.92
2023-02-17T08:10:36.983Z,4.95
2023-02-17T08:16:30.888Z,4.98
2023-02-17T08:21:38.967Z,5.00
2023-02-17T08:26:40.907Z,5.01
2023-02-17T08:31:43.522Z,5.07
2023-02-17T08:36:45.651Z,5.13
2023-02-17T08:41:48.323Z,5.21
2023-02-17T08:46:51.847Z,5.32
2023-02-17T08:51:54.222Z,5.44
2023-02-17T08:56:59.238Z,5.56
2023-02-17T09:02:01.663Z,5.63
2023-02-17T09:07:04.132Z,5.67
2023-02-17T09:12:06.509Z,5.69
2023-02-17T09:17:08.627Z,5.70
2023-02-17T09:22:20.055Z,5.70
2023-02-17T09:27:32.813Z,5.72
2023-02-17T09:32:35.024Z,5.68
2023-02-17T09:37:37.103Z,5.61
2023-02-17T09:42:40.769Z,5.58
2023-02-17T09:48:00.051Z,5.66
2023-02-17T09:53:18.110Z,5.74
2023-02-17T09:58:42.192Z,5.78
2023-02-17T10:03:52.169Z,5.79
2023-02-17T10:09:00.646Z,5.82
2023-02-17T10:14:10.061Z,5.85
2023-02-17T10:19:25.627Z,5.83
2023-02-17T10:24:27.647Z,5.82
2023-02-17T10:30:08.185Z,5.83
2023-02-17T10:35:18.773Z,5.88
2023-02-17T10:40:25.357Z,6.00
2023-02-17T10:45:40.893Z,6.13
2023-02-17T10:50:44.545Z,6.32
2023-02-17T11:01:49.431Z,6.49
2023-02-17T11:06:55.192Z,6.59
2023-02-17T11:12:11.988Z,6.72
2023-02-17T11:17:23.674Z,6.89
2023-02-17T11:22:41.180Z,6.99
2023-02-17T11:27:51.153Z,6.95
2023-02-17T11:32:55.224Z,6.83
2023-02-17T11:38:15.811Z,6.77
2023-02-17T11:43:21.355Z,6.73
2023-02-17T11:48:43.140Z,6.73
2023-02-17T11:54:00.984Z,6.66
2023-02-17T11:59:11.975Z,6.60
2023-02-17T12:04:31.713Z,6.56
2023-02-17T12:10:43.383Z,6.52
2023-02-17T12:16:27.073Z,6.45
2023-02-17T12:21:39.322Z,6.43
2023-02-17T12:27:28.283Z,6.45
2023-02-17T12:33:17.506Z,6.45
2023-02-17T12:38:27.231Z,6.42
2023-02-17T12:43:49.232Z,6.42
2023-02-17T12:48:59.934Z,6.46
2023-02-17T12:54:32.211Z,6.51
2023-02-17T12:59:47.017Z,6.61
2023-02-17T13:05:04.577Z,6.72
2023-02-17T13:10:17.935Z,6.86
2023-02-17T13:15:35.477Z,6.99
2023-02-17T13:20:39.183Z,7.11
2023-02-17T13:25:41.878Z,7.24
2023-02-17T13:30:45.826Z,7.31
2023-02-17T13:35:49.495Z,7.32
2023-02-17T13:40:52.283Z,7.32
2023-02-17T13:46:03.057Z,7.34
2023-02-17T13:51:17.451Z,7.34
2023-02-17T13:56:37.144Z,7.35
2023-02-17T14:01:42.672Z,7.35
2023-02-17T14:06:45.705Z,7.33
2023-02-17T14:11:50.406Z,7.31
2023-02-17T14:17:02.982Z,7.28
2023-02-17T14:22:06.752Z,7.26
2023-02-17T14:27:14.171Z,7.24
2023-02-17T14:32:38.634Z,7.19
2023-02-17T14:37:42.505Z,7.14
2023-02-17T14:42:45.674Z,7.11
2023-02-17T14:47:49.267Z,7.04
2023-02-17T14:52:55.288Z,6.98
2023-02-17T14:57:57.546Z,6.90
2023-02-17T15:02:59.920Z,6.84
2023-02-17T15:08:02.277Z,6.79
2023-02-17T15:13:05.327Z,6.78
2023-02-17T15:18:08.037Z,6.78
2023-02-17T15:23:16.701Z,6.77
2023-02-17T15:28:20.595Z,6.78
2023-02-17T15:33:26.856Z,6.82
2023-02-17T15:38:28.934Z,6.85
2023-02-17T15:48:40.150Z,6.87
2023-02-17T15:53:42.626Z,6.89
2023-02-17T15:58:47.349Z,6.91
2023-02-17T16:03:49.403Z,6.93
2023-02-17T16:08:54.698Z,6.92
2023-02-17T16:13:57.287Z,6.91
2023-02-17T16:19:01.097Z,6.92
2023-02-17T16:24:03.781Z,6.94
2023-02-17T16:29:20.989Z,6.96
2023-02-17T16:34:24.107Z,7.00
2023-02-17T16:39:27.055Z,7.03
2023-02-17T16:44:29.048Z,7.07
2023-02-17T16:49:33.949Z,7.10
2023-02-17T16:54:36.059Z,7.11
2023-02-17T16:59:38.210Z,7.14
2023-02-17T17:04:40.180Z,7.17
2023-02-17T17:09:45.268Z,7.22
2023-02-17T17:14:51.215Z,7.29
2023-02-17T17:19:53.373Z,7.34
2023-02-17T17:24:55.390Z,7.39
2023-02-17T17:29:57.657Z,7.42
2023-02-17T17:35:00.090Z,7.44
2023-02-17T17:40:01.949Z,7.46
2023-02-17T17:45:04.628Z,7.46
2023-02-17T17:50:11.069Z,7.46
2023-02-17T17:55:14.842Z,7.40
2023-02-17T18:00:18.733Z,7.30
2023-02-17T18:05:23.215Z,7.20
2023-02-17T18:10:25.212Z,7.15
2023-02-17T18:15:27.522Z,7.11
2023-02-17T18:20:29.844Z,7.12
2023-02-17T18:25:32.250Z,7.16
2023-02-17T18:30:34.779Z,7.22
2023-02-17T18:35:38.665Z,7.32
2023-02-17T18:40:42.135Z,7.42
2023-02-17T18:45:48.879Z,7.54
2023-02-17T18:50:51.288Z,7.63
2023-02-17T18:55:53.181Z,7.73
2023-02-17T19:00:57.369Z,7.85
2023-02-17T19:06:11.933Z,7.95
2023-02-17T19:11:17.217Z,8.04
2023-02-17T19:16:25.650Z,8.13
2023-02-17T19:21:28.220Z,8.22
2023-02-17T19:26:30.720Z,8.27
2023-02-17T19:31:33.156Z,8.33
2023-02-17T19:36:38.617Z,8.38
2023-02-17T19:41:41.245Z,8.45
2023-02-17T19:46:43.336Z,8.52
2023-02-17T19:51:46.159Z,8.57
2023-02-17T19:56:49.607Z,8.64
2023-02-17T20:01:51.792Z,8.69
2023-02-17T20:06:54.270Z,8.75
2023-02-17T20:11:57.178Z,8.81
2023-02-17T20:17:00.739Z,8.88
2023-02-17T20:22:04.060Z,8.94
2023-02-17T20:27:06.672Z,8.98
2023-02-17T20:32:08.987Z,9.01
2023-02-17T20:37:11.560Z,9.05
2023-02-17T20:42:13.505Z,9.09
2023-02-17T20:47:15.590Z,9.10
2023-02-17T20:52:18.832Z,9.16
2023-02-17T20:57:20.793Z,9.19
2023-02-17T21:02:23.165Z,9.22
2023-02-17T21:07:25.672Z,9.26
2023-02-17T21:12:27.604Z,9.27
2023-02-17T21:17:29.535Z,9.28
2023-02-17T21:22:31.832Z,9.30
2023-02-17T21:27:34.632Z,9.31
2023-02-17T21:32:38.667Z,9.34
2023-02-17T21:37:41.356Z,9.35
2023-02-17T21:43:02.075Z,9.34
2023-02-17T21:48:04.544Z,9.37
2023-02-17T21:53:06.777Z,9.39
2023-02-17T21:58:09.093Z,9.41
2023-02-17T22:03:11.732Z,9.45
2023-02-17T22:08:16.593Z,9.48
2023-02-17T22:13:24.147Z,9.52
2023-02-17T22:18:26.761Z,9.59
2023-02-17T22:23:28.604Z,9.62
2023-02-17T22:28:30.596Z,9.63
2023-02-17T22:33:33.422Z,9.61
2023-02-17T22:38:36.139Z,9.57
2023-02-17T22:43:41.130Z,9.51
2023-02-17T22:48:52.284Z,9.47
2023-02-17T22:53:55.082Z,9.39
2023-02-17T22:59:00.789Z,9.35
2023-02-17T23:04:06.642Z,9.28
2023-02-17T23:09:13.818Z,9.21
2023-02-17T23:14:18.991Z,9.17
2023-02-17T23:19:22.416Z,9.14
2023-02-17T23:24:26.406Z,9.11
2023-02-17T23:29:30.799Z,9.10
2023-02-17T23:34:34.147Z,9.07
2023-02-17T23:39:38.174Z,9.08
2023-02-17T23:44:40.280Z,9.08
2023-02-17T23:49:42.783Z,9.08
2023-02-17T23:54:44.782Z,9.14
2023-02-17T23:59:47.106Z,9.23
